createdAt,value
2022-11-09T00:00:30.515Z,94.40
2022-11-09T00:01:30.512Z,94.65
2022-11-09T00:02:30.481Z,94.65
2022-11-09T00:03:30.479Z,94.65
2022-11-09T00:04:30.470Z,95.26
2022-11-09T00:05:30.457Z,95.06
2022-11-09T00:06:30.513Z,95.26
2022-11-09T00:07:30.436Z,95.47
2022-11-09T00:08:30.461Z,95.26
2022-11-09T00:09:30.465Z,95.17
2022-11-09T00:10:30.421Z,95.57
2022-11-09T00:11:30.414Z,95.17
2022-11-09T00:12:30.420Z,95.53
2022-11-09T00:13:30.406Z,95.37
2022-11-09T00:14:30.381Z,95.53
2022-11-09T00:15:30.392Z,95.94
2022-11-09T00:16:30.376Z,96.34
2022-11-09T00:17:30.357Z,96.04
2022-11-09T00:18:30.371Z,96.04
2022-11-09T00:19:30.351Z,96.04
2022-11-09T00:20:30.346Z,96.10
2022-11-09T00:21:30.326Z,96.00
2022-11-09T00:22:30.318Z,96.30
2022-11-09T00:23:30.353Z,96.15
2022-11-09T00:24:30.308Z,95.13
2022-11-09T00:25:30.329Z,95.34
2022-11-09T00:26:30.316Z,94.93
2022-11-09T00:27:30.287Z,95.03
2022-11-09T00:28:30.267Z,95.23
2022-11-09T00:29:30.283Z,95.29
2022-11-09T00:30:30.286Z,95.19
2022-11-09T00:31:30.252Z,95.35
2022-11-09T00:32:30.359Z,95.04
2022-11-09T00:33:31.016Z,95.25
2022-11-09T00:34:30.275Z,95.35
2022-11-09T00:35:30.228Z,95.96
2022-11-09T00:36:31.214Z,95.51
2022-11-09T00:37:30.305Z,96.02
2022-11-09T00:38:30.205Z,95.92
2022-11-09T00:39:30.248Z,95.72
2022-11-09T00:40:30.181Z,95.61
2022-11-09T00:41:30.186Z,95.61
2022-11-09T00:42:30.174Z,96.12
2022-11-09T00:43:30.164Z,95.92
2022-11-09T00:44:30.185Z,96.02
2022-11-09T00:45:30.186Z,96.02
2022-11-09T00:46:30.138Z,96.12
2022-11-09T00:47:30.171Z,96.63
2022-11-09T00:48:30.130Z,96.73
2022-11-09T00:49:30.143Z,96.98
2022-11-09T00:50:30.660Z,97.49
2022-11-09T00:51:30.104Z,97.34
2022-11-09T00:52:30.090Z,97.75
2022-11-09T00:53:30.127Z,97.04
2022-11-09T00:54:30.101Z,97.00
2022-11-09T00:55:30.108Z,97.20
2022-11-09T00:56:30.050Z,96.84
2022-11-09T00:57:30.103Z,96.69
2022-11-09T00:58:30.045Z,96.38
2022-11-09T00:59:30.048Z,96.08
2022-11-09T01:00:30.037Z,95.87
2022-11-09T01:01:30.108Z,95.87
2022-11-09T01:02:30.082Z,96.08
2022-11-09T01:03:30.006Z,95.87
2022-11-09T01:04:30.025Z,96.73
2022-11-09T01:05:30.000Z,96.84
2022-11-09T01:06:30.106Z,96.78
2022-11-09T01:07:30.017Z,97.19
2022-11-09T01:08:29.988Z,97.70
2022-11-09T01:09:29.982Z,97.65
2022-11-09T01:10:29.966Z,98.21
2022-11-09T01:11:29.939Z,98.27
2022-11-09T01:12:29.947Z,98.41
2022-11-09T01:13:29.947Z,98.41
2022-11-09T01:14:29.972Z,98.27
2022-11-09T01:15:29.941Z,97.90
2022-11-09T01:16:29.909Z,97.86
2022-11-09T01:17:29.985Z,98.21
2022-11-09T01:18:29.924Z,98.21
2022-11-09T01:19:29.907Z,97.85
2022-11-09T01:20:29.912Z,98.41
2022-11-09T01:21:29.936Z,98.31
2022-11-09T01:22:29.907Z,98.61
2022-11-09T01:23:29.872Z,98.52
2022-11-09T01:24:29.879Z,98.86
2022-11-09T01:25:29.860Z,99.02
2022-11-09T01:26:29.825Z,98.93
2022-11-09T01:27:29.844Z,98.72
2022-11-09T01:28:29.856Z,99.02
2022-11-09T01:29:29.831Z,98.82
2022-11-09T01:30:29.809Z,98.82
2022-11-09T01:31:29.791Z,99.02
2022-11-09T01:32:29.782Z,98.98
2022-11-09T01:33:29.808Z,98.57
2022-11-09T01:34:29.915Z,98.61
2022-11-09T01:35:29.773Z,98.52
2022-11-09T01:36:29.799Z,98.31
2022-11-09T01:37:29.765Z,98.68
2022-11-09T01:38:29.742Z,98.57
2022-11-09T01:39:30.764Z,98.31
2022-11-09T01:40:29.739Z,98.36
2022-11-09T01:41:29.750Z,98.93
2022-11-09T01:42:29.712Z,98.61
2022-11-09T01:43:29.702Z,98.36
2022-11-09T01:44:29.715Z,98.52
2022-11-09T02:02:14.321Z,99.43
2022-11-09T02:03:14.321Z,99.23
2022-11-09T02:04:14.279Z,99.74
2022-11-09T02:05:15.415Z,99.43
2022-11-09T02:06:15.425Z,99.33
2022-11-09T02:07:15.416Z,99.43
2022-11-09T02:08:15.418Z,99.39
2022-11-09T02:09:15.385Z,99.54
2022-11-09T02:10:15.361Z,99.54
2022-11-09T02:11:15.390Z,99.54
2022-11-09T02:12:15.344Z,99.43
2022-11-09T02:13:47.291Z,99.18
2022-11-09T02:14:15.328Z,99.18
2022-11-09T02:15:15.336Z,99.33
2022-11-09T02:16:15.320Z,99.49
2022-11-09T02:17:15.309Z,99.23
2022-11-09T02:18:15.305Z,99.39
2022-11-09T02:19:15.321Z,99.33
2022-11-09T02:20:15.293Z,99.74
2022-11-09T02:21:15.269Z,99.84
2022-11-09T02:22:15.293Z,99.95
2022-11-09T02:23:15.278Z,99.99
2022-11-09T02:24:15.290Z,99.99
2022-11-09T02:25:15.245Z,99.99
2022-11-09T02:26:15.237Z,99.99
2022-11-09T02:27:15.237Z,99.99
2022-11-09T02:28:15.246Z,99.99
2022-11-09T02:29:15.227Z,99.99
2022-11-09T02:30:15.211Z,99.99
2022-11-09T02:31:15.201Z,99.99
2022-11-09T02:32:15.219Z,99.99
2022-11-09T02:33:15.202Z,99.99
2022-11-09T02:34:15.179Z,99.99
2022-11-09T02:35:15.192Z,99.99
2022-11-09T02:36:15.191Z,99.99
2022-11-09T02:37:15.169Z,99.99
2022-11-09T02:38:15.150Z,99.99
2022-11-09T02:39:15.171Z,99.99
2022-11-09T02:40:15.136Z,99.99
2022-11-09T02:41:15.117Z,99.99
2022-11-09T02:42:20.934Z,99.99
2022-11-09T02:43:17.561Z,99.99
2022-11-09T02:44:15.106Z,99.99
2022-11-09T02:45:15.105Z,99.99
2022-11-09T02:46:15.086Z,99.99
2022-11-09T02:47:15.082Z,99.99
2022-11-09T02:48:15.067Z,99.99
2022-11-09T02:49:15.040Z,99.99
2022-11-09T02:50:15.145Z,99.99
2022-11-09T02:51:15.048Z,99.99
2022-11-09T02:52:15.050Z,99.99
2022-11-09T02:53:15.029Z,99.99
2022-11-09T02:54:15.040Z,99.99
2022-11-09T02:55:15.029Z,99.99
2022-11-09T02:56:15.029Z,99.99
2022-11-09T02:57:15.012Z,99.99
2022-11-09T02:58:15.001Z,99.99
2022-11-09T02:59:15.532Z,99.99
2022-11-09T03:00:15.017Z,99.99
2022-11-09T03:01:15.017Z,99.99
2022-11-09T03:02:14.986Z,99.99
2022-11-09T03:03:15.959Z,99.99
2022-11-09T03:04:14.960Z,99.99
2022-11-09T03:05:14.972Z,99.99
2022-11-09T03:06:14.939Z,99.99
2022-11-09T03:07:14.977Z,99.99
2022-11-09T03:08:14.917Z,99.99
2022-11-09T03:09:14.941Z,99.99
2022-11-09T03:10:14.923Z,99.99
2022-11-09T03:11:14.900Z,99.99
2022-11-09T03:12:15.526Z,99.99
2022-11-09T03:13:14.932Z,99.99
2022-11-09T03:14:15.856Z,99.99
2022-11-09T03:15:14.857Z,99.99
2022-11-09T03:16:14.846Z,99.99
2022-11-09T03:17:14.842Z,99.99
2022-11-09T03:18:14.842Z,99.99
2022-11-09T03:19:14.828Z,99.99
2022-11-09T03:20:14.824Z,99.99
2022-11-09T03:21:14.860Z,99.99
2022-11-09T03:22:15.552Z,99.99
2022-11-09T03:23:14.826Z,99.99
2022-11-09T03:24:14.839Z,99.99
2022-11-09T03:25:14.798Z,99.99
2022-11-09T03:26:14.795Z,99.99
2022-11-09T03:27:14.795Z,99.99
2022-11-09T03:28:14.748Z,99.99
2022-11-09T03:29:14.749Z,99.99
2022-11-09T03:30:14.763Z,99.99
2022-11-09T03:31:14.743Z,99.99
2022-11-09T03:32:14.762Z,99.99
2022-11-09T03:33:14.780Z,99.99
2022-11-09T03:34:14.723Z,99.99
2022-11-09T03:35:14.694Z,99.99
2022-11-09T03:36:14.694Z,99.99
2022-11-09T03:37:14.763Z,99.99
2022-11-09T03:38:14.687Z,99.99
2022-11-09T03:39:14.771Z,99.99
2022-11-09T03:40:14.702Z,99.99
2022-11-09T03:41:14.684Z,99.99
2022-11-09T03:42:14.681Z,99.99
2022-11-09T03:43:14.642Z,99.99
2022-11-09T03:44:14.671Z,99.99
2022-11-09T03:45:14.663Z,99.99
2022-11-09T03:46:14.660Z,99.99
2022-11-09T03:47:14.638Z,99.99
2022-11-09T04:02:46.798Z,99.99
2022-11-09T04:03:46.771Z,99.99
2022-11-09T04:04:47.950Z,99.99
2022-11-09T04:05:47.894Z,99.99
2022-11-09T04:06:47.966Z,99.99
2022-11-09T04:07:47.865Z,99.99
2022-11-09T04:08:51.248Z,99.99
2022-11-09T04:09:48.945Z,99.99
2022-11-09T04:10:47.849Z,99.99
2022-11-09T04:11:47.845Z,99.99
2022-11-09T04:12:47.836Z,99.99
2022-11-09T04:13:47.826Z,99.99
2022-11-09T04:14:47.835Z,99.99
2022-11-09T04:15:47.798Z,99.99
2022-11-09T04:16:47.797Z,99.99
2022-11-09T04:17:47.774Z,99.99
2022-11-09T04:18:47.775Z,99.99
2022-11-09T04:19:47.807Z,99.99
2022-11-09T04:20:47.754Z,99.99
2022-11-09T04:21:47.800Z,99.99
2022-11-09T04:22:47.731Z,99.99
2022-11-09T04:23:47.757Z,99.99
2022-11-09T04:24:47.738Z,99.99
2022-11-09T04:25:47.785Z,99.99
2022-11-09T04:26:47.701Z,99.99
2022-11-09T04:27:47.731Z,99.99
2022-11-09T04:28:47.723Z,99.99
2022-11-09T04:29:47.676Z,99.99
2022-11-09T04:30:47.708Z,99.99
2022-11-09T04:31:47.674Z,99.99
2022-11-09T04:32:47.661Z,99.99
2022-11-09T04:33:47.646Z,99.99
2022-11-09T04:34:47.649Z,99.99
2022-11-09T04:35:47.645Z,99.99
2022-11-09T04:36:47.639Z,99.99
2022-11-09T04:37:47.628Z,99.99
2022-11-09T04:38:47.640Z,99.99
2022-11-09T04:39:47.606Z,99.99
2022-11-09T04:40:47.587Z,99.99
2022-11-09T04:41:48.449Z,99.99
2022-11-09T04:42:47.609Z,99.99
2022-11-09T04:43:47.583Z,99.99
2022-11-09T04:44:47.573Z,99.99
2022-11-09T04:45:47.555Z,99.99
2022-11-09T04:46:47.552Z,99.99
2022-11-09T04:47:47.571Z,99.99
2022-11-09T04:48:47.565Z,99.99
2022-11-09T04:49:47.545Z,99.99
2022-11-09T04:50:47.558Z,99.99
2022-11-09T04:51:47.564Z,99.99
2022-11-09T04:52:47.518Z,99.99
2022-11-09T04:53:47.549Z,99.99
2022-11-09T04:54:47.500Z,99.99
2022-11-09T04:55:47.508Z,99.99
2022-11-09T04:56:47.472Z,99.99
2022-11-09T04:57:47.451Z,99.99
2022-11-09T04:58:47.464Z,99.99
2022-11-09T04:59:49.402Z,99.99
2022-11-09T05:00:47.437Z,99.99
2022-11-09T05:02:19.341Z,99.99
2022-11-09T05:02:47.621Z,99.99
2022-11-09T05:03:47.500Z,99.99
2022-11-09T05:04:47.391Z,99.99
2022-11-09T05:05:48.694Z,99.99
2022-11-09T05:06:48.461Z,99.99
2022-11-09T05:07:47.427Z,99.99
2022-11-09T05:08:47.391Z,99.99
2022-11-09T05:09:47.399Z,99.99
2022-11-09T05:10:47.350Z,99.99
2022-11-09T05:11:47.360Z,99.99
2022-11-09T05:12:47.356Z,99.99
2022-11-09T05:13:47.344Z,99.99
2022-11-09T05:14:47.352Z,99.99
2022-11-09T05:15:47.435Z,99.99
2022-11-09T05:16:47.314Z,99.99
2022-11-09T05:17:47.303Z,99.99
2022-11-09T05:18:47.285Z,99.99
2022-11-09T05:19:47.318Z,99.99
2022-11-09T05:20:47.271Z,99.99
2022-11-09T05:21:50.294Z,99.99
2022-11-09T05:22:47.259Z,99.99
2022-11-09T05:23:47.272Z,99.99
2022-11-09T05:24:47.285Z,99.99
2022-11-09T05:25:47.281Z,99.99
2022-11-09T05:26:48.698Z,99.99
2022-11-09T05:27:47.227Z,99.99
2022-11-09T05:28:47.274Z,99.99
2022-11-09T05:29:47.202Z,99.99
2022-11-09T05:30:47.222Z,99.99
2022-11-09T05:31:51.947Z,99.99
2022-11-09T05:32:49.175Z,99.99
2022-11-09T05:33:47.172Z,99.99
2022-11-09T05:34:47.176Z,99.99
2022-11-09T05:35:47.185Z,99.99
2022-11-09T05:36:47.158Z,99.99
2022-11-09T05:37:47.120Z,99.99
2022-11-09T05:38:47.291Z,99.99
2022-11-09T05:39:47.169Z,99.99
2022-11-09T05:40:47.137Z,99.99
2022-11-09T05:41:47.141Z,99.99
2022-11-09T05:42:48.041Z,99.99
2022-11-09T05:43:47.121Z,99.99
2022-11-09T05:44:47.086Z,99.99
2022-11-09T05:45:47.085Z,99.99
2022-11-09T05:46:47.065Z,99.99
2022-11-09T05:47:47.079Z,99.99
2022-11-09T05:48:47.048Z,99.99
2022-11-09T05:49:47.055Z,99.99
2022-11-09T05:50:47.023Z,99.99
2022-11-09T05:51:47.053Z,99.99
2022-11-09T05:52:47.082Z,99.99
2022-11-09T05:53:47.345Z,99.99
2022-11-09T05:54:47.029Z,99.99
2022-11-09T05:55:46.991Z,99.99
2022-11-09T05:56:46.977Z,99.99
2022-11-09T05:57:46.983Z,99.99
2022-11-09T05:58:47.015Z,99.99
2022-11-09T05:59:47.018Z,99.99
2022-11-09T06:00:46.941Z,99.99
2022-11-09T06:01:46.979Z,99.99
2022-11-09T06:02:47.964Z,99.99
2022-11-09T06:03:46.925Z,99.99
2022-11-09T06:04:46.942Z,99.99
2022-11-09T06:05:46.897Z,99.99
2022-11-09T06:06:46.920Z,99.99
2022-11-09T06:07:46.903Z,99.99
2022-11-09T06:08:46.896Z,99.99
2022-11-09T06:09:46.882Z,99.99
2022-11-09T06:10:46.884Z,99.99
2022-11-09T06:11:46.851Z,99.99
2022-11-09T06:12:46.871Z,99.99
2022-11-09T06:13:46.903Z,99.99
2022-11-09T06:14:46.873Z,99.99
2022-11-09T06:15:46.905Z,99.99
2022-11-09T06:16:46.841Z,99.99
2022-11-09T06:17:46.826Z,99.99
2022-11-09T06:18:46.874Z,99.99
2022-11-09T06:19:46.879Z,99.99
2022-11-09T06:20:46.823Z,99.99
2022-11-09T06:21:46.790Z,99.99
2022-11-09T06:22:46.818Z,99.99
2022-11-09T06:23:47.752Z,99.99
2022-11-09T06:24:46.771Z,99.99
2022-11-09T06:25:46.774Z,99.99
2022-11-09T06:26:46.745Z,99.99
2022-11-09T06:27:46.720Z,99.99
2022-11-09T06:28:46.758Z,99.99
2022-11-09T06:29:46.742Z,99.99
2022-11-09T06:30:46.709Z,99.99
2022-11-09T06:31:46.753Z,99.99
2022-11-09T06:32:46.727Z,99.99
2022-11-09T06:33:46.668Z,99.99
2022-11-09T06:34:46.713Z,99.99
2022-11-09T06:35:49.837Z,99.99
2022-11-09T06:36:47.664Z,99.99
2022-11-09T06:37:46.669Z,99.99
2022-11-09T06:38:46.649Z,99.99
2022-11-09T06:39:46.658Z,99.99
2022-11-09T06:40:46.624Z,99.99
2022-11-09T06:41:47.726Z,99.99
2022-11-09T06:42:47.672Z,99.99
2022-11-09T06:43:46.621Z,99.99
2022-11-09T06:44:46.592Z,99.99
2022-11-09T06:45:46.587Z,99.99
2022-11-09T06:46:46.593Z,99.99
2022-11-09T06:47:46.596Z,99.99
2022-11-09T06:48:50.585Z,99.99
2022-11-09T06:49:48.540Z,99.99
2022-11-09T06:50:46.552Z,99.99
2022-11-09T06:51:46.584Z,99.99
2022-11-09T06:52:46.558Z,99.99
2022-11-09T06:53:46.533Z,99.99
2022-11-09T06:54:46.553Z,99.99
2022-11-09T06:55:50.549Z,99.99
2022-11-09T06:56:47.538Z,99.99
2022-11-09T06:57:46.521Z,99.99
2022-11-09T06:58:46.563Z,99.99
2022-11-09T06:59:46.539Z,99.99
2022-11-09T07:00:46.483Z,99.99
2022-11-09T07:01:46.542Z,99.99
2022-11-09T07:02:46.471Z,99.99
2022-11-09T07:03:46.454Z,99.99
2022-11-09T07:04:46.472Z,99.99
2022-11-09T07:05:46.426Z,99.99
2022-11-09T07:06:46.508Z,99.99
2022-11-09T07:07:46.461Z,99.99
2022-11-09T07:08:46.403Z,99.99
2022-11-09T07:09:46.515Z,99.99
2022-11-09T07:10:46.439Z,99.99
2022-11-09T07:11:46.422Z,99.99
2022-11-09T07:12:46.380Z,99.99
2022-11-09T07:13:46.398Z,99.99
2022-11-09T07:14:47.044Z,99.99
2022-11-09T07:15:46.364Z,99.99
2022-11-09T07:16:46.370Z,99.99
2022-11-09T07:17:46.333Z,99.99
2022-11-09T07:18:46.329Z,99.99
2022-11-09T07:19:46.354Z,99.99
2022-11-09T07:20:46.320Z,99.99
2022-11-09T07:21:46.345Z,99.99
2022-11-09T07:22:46.314Z,99.99
2022-11-09T07:23:46.316Z,99.99
2022-11-09T07:24:46.318Z,99.99
2022-11-09T07:25:46.268Z,99.99
2022-11-09T07:26:46.310Z,99.99
2022-11-09T07:27:46.271Z,99.99
2022-11-09T07:28:46.313Z,99.99
2022-11-09T07:29:46.271Z,99.99
2022-11-09T07:30:46.303Z,99.99
2022-11-09T07:31:46.245Z,99.99
2022-11-09T07:33:07.962Z,99.99
2022-11-09T07:33:48.222Z,99.99
2022-11-09T07:34:46.204Z,99.99
2022-11-09T07:35:46.231Z,99.99
2022-11-09T07:36:46.218Z,99.99
2022-11-09T07:37:46.191Z,99.99
2022-11-09T07:38:46.216Z,99.99
2022-11-09T07:39:46.202Z,99.99
2022-11-09T07:40:46.174Z,99.99
2022-11-09T07:41:46.189Z,99.99
2022-11-09T07:42:46.179Z,99.99
2022-11-09T07:43:46.197Z,99.99
2022-11-09T07:44:46.129Z,99.99
2022-11-09T07:45:46.130Z,99.99
2022-11-09T07:46:46.225Z,99.99
2022-11-09T07:47:46.094Z,99.99
2022-11-09T07:48:46.153Z,99.99
2022-11-09T07:49:46.117Z,99.99
2022-11-09T07:50:46.096Z,99.99
2022-11-09T07:51:46.121Z,99.99
2022-11-09T07:52:46.070Z,99.99
2022-11-09T07:53:46.057Z,99.99
2022-11-09T07:54:49.533Z,99.99
2022-11-09T07:55:48.062Z,99.99
2022-11-09T07:56:46.038Z,99.99
2022-11-09T07:57:46.040Z,99.99
2022-11-09T07:58:46.011Z,99.99
2022-11-09T07:59:46.022Z,99.99
2022-11-09T08:00:46.048Z,99.99
2022-11-09T08:01:46.064Z,99.99
2022-11-09T08:02:46.015Z,99.99
2022-11-09T08:03:46.011Z,99.99
2022-11-09T08:04:46.093Z,99.99
2022-11-09T08:05:45.962Z,99.99
2022-11-09T08:06:46.031Z,99.99
2022-11-09T08:07:45.954Z,99.99
2022-11-09T08:08:45.959Z,99.99
2022-11-09T08:09:45.968Z,99.91
2022-11-09T08:10:45.944Z,99.81
2022-11-09T08:11:45.929Z,99.81
2022-11-09T08:12:45.955Z,99.71
2022-11-09T08:14:17.847Z,99.26
2022-11-09T08:14:45.908Z,99.36
2022-11-09T08:15:45.950Z,99.26
2022-11-09T08:16:45.895Z,99.26
2022-11-09T08:17:45.895Z,98.95
2022-11-09T08:18:45.895Z,98.34
2022-11-09T08:19:45.879Z,98.65
2022-11-09T08:20:45.847Z,98.30
2022-11-09T08:21:45.827Z,98.09
2022-11-09T08:22:45.840Z,97.94
2022-11-09T08:23:45.852Z,96.92
2022-11-09T08:24:45.878Z,96.78
2022-11-09T08:25:45.814Z,96.37
2022-11-09T08:26:45.836Z,96.18
2022-11-09T08:27:45.808Z,95.26
2022-11-09T08:28:45.778Z,95.47
2022-11-09T08:29:45.779Z,95.62
2022-11-09T08:30:45.799Z,95.82
2022-11-09T08:31:45.789Z,95.66
2022-11-09T08:32:45.738Z,96.17
2022-11-09T08:33:45.766Z,96.27
2022-11-09T08:34:45.738Z,96.72
2022-11-09T08:35:50.536Z,96.42
2022-11-09T08:36:47.710Z,96.72
2022-11-09T08:37:45.700Z,96.42
2022-11-09T08:38:45.703Z,96.62
2022-11-09T08:39:45.706Z,96.52
2022-11-09T08:40:45.718Z,96.72
2022-11-09T08:41:45.679Z,96.31
2022-11-09T08:42:45.712Z,96.52
2022-11-09T08:43:45.680Z,96.62
2022-11-09T08:44:45.657Z,96.52
2022-11-09T08:45:46.628Z,96.72
2022-11-09T08:46:45.663Z,97.23
2022-11-09T08:47:45.683Z,96.92
2022-11-09T08:48:45.616Z,96.92
2022-11-09T08:49:45.608Z,96.83
2022-11-09T08:50:45.679Z,96.83
2022-11-09T08:51:45.625Z,96.68
2022-11-09T08:52:45.590Z,96.98
2022-11-09T08:53:45.600Z,96.83
2022-11-09T08:54:45.602Z,96.72
2022-11-09T08:55:49.339Z,96.72
2022-11-09T08:56:46.564Z,96.78
2022-11-09T08:57:45.556Z,96.58
2022-11-09T08:58:45.544Z,96.37
2022-11-09T08:59:45.563Z,96.37
2022-11-09T09:00:45.567Z,96.37
2022-11-09T09:01:45.619Z,95.62
2022-11-09T09:02:45.514Z,95.21
2022-11-09T09:03:45.550Z,95.57
2022-11-09T09:04:45.490Z,94.50
2022-11-09T09:05:46.101Z,94.66
2022-11-09T09:06:45.509Z,94.56
2022-11-09T09:07:45.482Z,93.64
2022-11-09T09:08:45.506Z,94.35
2022-11-09T09:09:45.483Z,94.05
2022-11-09T09:10:45.466Z,94.60
2022-11-09T09:11:45.439Z,94.50
2022-11-09T09:12:45.452Z,94.56
2022-11-09T09:13:45.432Z,94.66
2022-11-09T09:14:45.410Z,94.25
2022-11-09T09:15:45.410Z,94.05
2022-11-09T09:16:46.108Z,93.90
2022-11-09T09:17:45.400Z,93.64
2022-11-09T09:18:45.427Z,93.09
2022-11-09T09:19:49.850Z,92.99
2022-11-09T09:20:46.379Z,92.99
2022-11-09T09:21:45.420Z,92.99
2022-11-09T09:22:46.150Z,92.24
2022-11-09T09:23:45.353Z,91.78
2022-11-09T09:24:46.345Z,91.38
2022-11-09T09:25:45.347Z,91.38
2022-11-09T09:26:46.323Z,89.32
2022-11-09T09:27:45.334Z,87.18
2022-11-09T09:28:45.353Z,86.47
2022-11-09T09:29:45.310Z,85.78
2022-11-09T09:30:45.296Z,83.34
2022-11-09T09:31:45.279Z,83.72
2022-11-09T09:32:45.344Z,84.27
2022-11-09T09:33:45.259Z,83.48
2022-11-09T09:34:45.242Z,81.28
2022-11-09T09:35:46.276Z,81.38
2022-11-09T09:36:48.249Z,81.28
2022-11-09T09:37:46.276Z,81.85
2022-11-09T09:38:45.213Z,80.16
2022-11-09T09:39:45.279Z,79.96
2022-11-09T09:40:45.223Z,79.22
2022-11-09T09:41:45.206Z,79.18
2022-11-09T09:42:45.245Z,78.64
2022-11-09T09:43:45.182Z,77.03
2022-11-09T09:44:45.192Z,77.20
2022-11-09T09:45:45.196Z,79.16
2022-11-09T09:46:45.184Z,78.31
2022-11-09T09:47:45.197Z,78.38
2022-11-09T09:48:45.207Z,78.05
2022-11-09T09:49:45.249Z,79.36
2022-11-09T09:50:45.148Z,79.49
2022-11-09T09:51:45.163Z,80.13
2022-11-09T09:52:54.189Z,81.35
2022-11-09T09:53:47.123Z,79.93
2022-11-09T09:54:45.151Z,79.97
2022-11-09T09:55:45.108Z,81.32
2022-11-09T09:56:45.120Z,81.67
2022-11-09T09:57:45.100Z,83.04
2022-11-09T09:58:45.106Z,81.96
2022-11-09T09:59:45.081Z,82.57
2022-11-09T10:00:45.086Z,82.47
2022-11-09T10:01:45.065Z,82.27
2022-11-09T10:02:45.080Z,82.07
2022-11-09T10:03:45.025Z,81.56
2022-11-09T10:04:45.177Z,82.67
2022-11-09T10:05:45.077Z,83.22
2022-11-09T10:06:45.097Z,83.07
2022-11-09T10:07:45.031Z,82.61
2022-11-09T10:08:45.004Z,82.75
2022-11-09T10:09:45.018Z,83.66
2022-11-09T10:10:45.014Z,83.05
2022-11-09T10:11:44.961Z,82.61
2022-11-09T10:12:44.953Z,81.76
2022-11-09T10:13:44.967Z,82.17
2022-11-09T10:14:44.982Z,82.57
2022-11-09T10:15:44.941Z,83.10
2022-11-09T10:16:44.960Z,81.48
2022-11-09T10:17:44.998Z,81.28
2022-11-09T10:18:44.904Z,80.98
2022-11-09T10:19:44.935Z,80.27
2022-11-09T10:20:49.086Z,80.24
2022-11-09T10:21:45.894Z,80.07
2022-11-09T10:22:44.902Z,81.56
2022-11-09T10:23:44.874Z,81.62
2022-11-09T10:25:12.889Z,81.42
2022-11-09T10:26:46.902Z,81.93
2022-11-09T10:27:45.087Z,81.96
2022-11-09T10:29:09.627Z,81.60
2022-11-09T10:29:46.885Z,82.95
2022-11-09T10:30:44.836Z,82.98
2022-11-09T10:31:44.802Z,81.52
2022-11-09T10:32:44.809Z,82.67
2022-11-09T10:33:44.813Z,82.65
2022-11-09T10:34:44.811Z,83.80
2022-11-09T10:35:44.840Z,84.34
2022-11-09T10:36:44.769Z,85.60
2022-11-09T10:37:44.775Z,86.08
2022-11-09T10:38:44.766Z,86.59
2022-11-09T10:39:44.766Z,86.49
2022-11-09T10:40:44.753Z,87.45
2022-11-09T10:41:44.758Z,87.54
2022-11-09T10:42:44.723Z,87.45
2022-11-09T10:43:44.712Z,87.95
2022-11-09T10:44:44.704Z,89.06
2022-11-09T10:45:45.715Z,88.40
2022-11-09T10:46:44.694Z,89.06
2022-11-09T10:47:44.684Z,88.56
2022-11-09T10:48:44.718Z,87.85
2022-11-09T10:49:44.677Z,87.69
2022-11-09T10:50:44.703Z,87.89
2022-11-09T10:51:44.646Z,87.99
2022-11-09T10:52:47.659Z,87.69
2022-11-09T10:53:45.662Z,87.59
2022-11-09T10:54:44.628Z,88.29
2022-11-09T10:55:44.642Z,88.09
2022-11-09T10:57:05.117Z,88.29
2022-11-09T10:57:46.640Z,88.40
2022-11-09T10:58:44.612Z,87.69
2022-11-09T10:59:44.644Z,88.20
2022-11-09T11:00:44.654Z,87.79
2022-11-09T11:01:44.648Z,88.29
2022-11-09T11:02:44.574Z,87.79
2022-11-09T11:03:44.598Z,87.79
2022-11-09T11:04:44.590Z,87.69
2022-11-09T11:05:44.564Z,87.28
2022-11-09T11:06:44.613Z,87.38
2022-11-09T11:07:44.543Z,87.08
2022-11-09T11:08:44.582Z,87.89
2022-11-09T11:09:44.540Z,87.73
2022-11-09T11:10:44.539Z,87.59
2022-11-09T11:11:44.501Z,87.59
2022-11-09T11:12:44.504Z,87.48
2022-11-09T11:13:44.505Z,86.63
2022-11-09T11:14:44.507Z,85.64
2022-11-09T11:15:44.474Z,85.54
2022-11-09T11:16:44.475Z,84.45
2022-11-09T11:17:44.493Z,84.14
2022-11-09T11:18:44.460Z,83.90
2022-11-09T11:19:44.452Z,83.29
2022-11-09T11:20:45.473Z,84.14
2022-11-09T11:21:44.457Z,83.64
2022-11-09T11:22:44.421Z,84.04
2022-11-09T11:23:44.435Z,84.04
2022-11-09T11:24:44.452Z,84.08
2022-11-09T11:25:44.396Z,84.48
2022-11-09T11:26:44.401Z,83.98
2022-11-09T11:27:44.390Z,84.93
2022-11-09T11:28:44.413Z,85.03
2022-11-09T11:29:44.376Z,85.33
2022-11-09T11:30:44.379Z,84.33
2022-11-09T11:31:44.352Z,85.03
2022-11-09T11:32:50.090Z,84.73
2022-11-09T11:33:46.321Z,84.77
2022-11-09T11:34:59.861Z,85.07
2022-11-09T11:35:46.340Z,84.56
2022-11-09T11:36:44.318Z,85.24
2022-11-09T11:37:44.301Z,84.06
2022-11-09T11:38:44.315Z,84.33
2022-11-09T11:39:44.292Z,84.33
2022-11-09T11:40:44.297Z,84.73
2022-11-09T11:41:45.302Z,84.83
2022-11-09T11:42:44.294Z,83.78
2022-11-09T11:43:44.262Z,84.12
2022-11-09T11:44:47.866Z,82.97
2022-11-09T11:45:45.250Z,83.78
2022-11-09T11:46:44.299Z,83.82
2022-11-09T11:47:44.222Z,83.78
2022-11-09T11:48:44.239Z,83.72
2022-11-09T11:49:44.236Z,83.61
2022-11-09T11:50:44.224Z,83.37
2022-11-09T11:51:44.213Z,84.08
2022-11-09T11:52:44.188Z,83.82
2022-11-09T11:53:44.166Z,83.58
2022-11-09T11:54:45.217Z,84.63
2022-11-09T11:55:44.227Z,83.51
2022-11-09T11:56:44.188Z,83.72
2022-11-09T11:57:44.138Z,83.82
2022-11-09T11:58:44.175Z,83.65
2022-11-09T11:59:44.157Z,83.92
2022-11-09T12:00:44.142Z,84.56
2022-11-09T12:01:44.153Z,84.56
2022-11-09T12:02:44.238Z,85.17
2022-11-09T12:03:48.145Z,85.11
2022-11-09T12:04:46.096Z,84.61
2022-11-09T12:05:44.077Z,85.42
2022-11-09T12:06:44.462Z,85.66
2022-11-09T12:07:45.093Z,85.96
2022-11-09T12:08:44.062Z,85.76
2022-11-09T12:09:44.056Z,86.98
2022-11-09T12:10:44.080Z,85.76
2022-11-09T12:11:44.048Z,86.77
2022-11-09T12:12:44.046Z,85.86
2022-11-09T12:13:49.348Z,86.27
2022-11-09T12:14:46.025Z,85.66
2022-11-09T12:15:44.032Z,85.76
2022-11-09T12:16:44.020Z,86.27
2022-11-09T12:17:44.042Z,85.36
2022-11-09T12:18:43.989Z,85.76
2022-11-09T12:19:44.031Z,85.72
2022-11-09T12:20:44.007Z,84.70
2022-11-09T12:21:44.003Z,84.97
2022-11-09T12:22:43.944Z,84.36
2022-11-09T12:23:43.948Z,84.47
2022-11-09T12:24:43.984Z,84.87
2022-11-09T12:25:43.928Z,85.07
2022-11-09T12:26:43.975Z,84.67
2022-11-09T12:27:43.916Z,84.47
2022-11-09T12:28:43.912Z,85.01
2022-11-09T12:29:43.934Z,84.87
2022-11-09T12:30:43.938Z,84.61
2022-11-09T12:31:43.925Z,84.61
2022-11-09T12:32:43.931Z,84.61
2022-11-09T12:33:44.141Z,84.61
2022-11-09T12:34:43.895Z,85.17
2022-11-09T12:35:43.972Z,84.70
2022-11-09T12:36:43.897Z,84.47
2022-11-09T12:37:43.912Z,85.07
2022-11-09T12:38:43.817Z,83.86
2022-11-09T12:39:43.824Z,84.47
2022-11-09T12:40:43.867Z,84.47
2022-11-09T12:41:43.808Z,84.87
2022-11-09T12:42:43.920Z,84.87
2022-11-09T12:43:43.859Z,83.65
2022-11-09T12:44:43.803Z,84.87
2022-11-09T12:45:43.804Z,83.76
2022-11-09T12:46:43.832Z,83.86
2022-11-09T12:47:43.765Z,83.04
2022-11-09T12:48:43.750Z,84.16
2022-11-09T12:49:43.740Z,84.27
2022-11-09T12:50:43.765Z,83.76
2022-11-09T12:51:43.760Z,83.35
2022-11-09T12:52:43.752Z,83.15
2022-11-09T12:53:43.779Z,83.21
2022-11-09T12:54:43.727Z,83.21
2022-11-09T12:55:43.716Z,83.11
2022-11-09T12:56:43.715Z,82.84
2022-11-09T12:57:43.679Z,82.14
2022-11-09T12:58:43.683Z,82.34
2022-11-09T12:59:43.670Z,82.24
2022-11-09T13:00:43.658Z,81.59
2022-11-09T13:01:43.743Z,81.83
2022-11-09T13:02:43.646Z,82.14
2022-11-09T13:03:43.653Z,82.34
2022-11-09T13:04:43.620Z,82.03
2022-11-09T13:05:43.651Z,81.83
2022-11-09T13:06:43.671Z,81.73
2022-11-09T13:07:43.604Z,82.24
2022-11-09T13:08:43.612Z,81.83
2022-11-09T13:09:45.114Z,81.73
2022-11-09T13:10:44.624Z,81.23
2022-11-09T13:11:43.552Z,82.34
2022-11-09T13:12:43.598Z,82.24
2022-11-09T13:13:43.576Z,81.67
2022-11-09T13:14:43.537Z,81.57
2022-11-09T13:15:43.576Z,82.14
2022-11-09T13:16:43.533Z,81.87
2022-11-09T13:17:43.543Z,81.93
2022-11-09T13:18:45.701Z,81.63
2022-11-09T13:19:44.492Z,81.73
2022-11-09T13:20:58.986Z,81.77
2022-11-09T13:21:45.538Z,82.89
2022-11-09T13:22:43.516Z,82.17
2022-11-09T13:24:45.553Z,81.87
2022-11-09T13:25:43.455Z,82.17